Time;durP1;ratioP1;P1;durP2;ratioP2;P2;SDS_P1;SDS_P2;PMS_P1;PMS_P2;Temp;Humidity;BMP_temperature;BMP_pressure;BME280_temperature;BME280_humidity;BME280_pressure;Samples;Min_cycle;Max_cycle;Signal;HPM_P1;HPM_P2
2022/07/06 00:01:18;;;;;;;15.07;12.30;;;;;;;;;;5038755;28;20044;-80
2022/07/06 00:03:43;;;;;;;12.95;11.52;;;;;;;;;;5039211;28;20032;-80
2022/07/06 00:06:09;;;;;;;13.25;11.07;;;;;;;;;;5044142;28;20034;-80
2022/07/06 00:08:34;;;;;;;12.77;11.48;;;;;;;;;;5045030;28;20067;-79
2022/07/06 00:11:00;;;;;;;11.98;10.77;;;;;;;;;;5046869;28;20030;-80
2022/07/06 00:13:25;;;;;;;12.60;11.30;;;;;;;;;;5046738;28;20048;-80
2022/07/06 00:15:51;;;;;;;12.18;10.88;;;;;;;;;;5047246;28;20042;-80
2022/07/06 00:18:16;;;;;;;12.20;11.00;;;;;;;;;;5046855;28;20075;-80
2022/07/06 00:20:42;;;;;;;12.07;10.88;;;;;;;;;;5047132;28;20435;-81
2022/07/06 00:23:07;;;;;;;11.75;10.55;;;;;;;;;;5055183;28;20040;-80
2022/07/06 00:25:33;;;;;;;12.73;10.52;;;;;;;;;;5058765;28;20036;-81
2022/07/06 00:27:58;;;;;;;12.63;11.32;;;;;;;;;;5054997;28;20022;-81
2022/07/06 00:30:24;;;;;;;13.48;11.60;;;;;;;;;;5038814;28;20489;-81
2022/07/06 00:32:49;;;;;;;15.23;12.25;;;;;;;;;;5040043;28;20053;-81
2022/07/06 00:35:15;;;;;;;16.48;11.95;;;;;;;;;;5040660;28;20060;-81
2022/07/06 00:37:40;;;;;;;15.93;12.50;;;;;;;;;;5018740;28;20026;-81
2022/07/06 00:40:06;;;;;;;16.73;12.48;;;;;;;;;;5030404;28;20095;-81
2022/07/06 00:42:38;;;;;;;16.42;13.13;;;;;;;;;;5038645;28;20079;-80
2022/07/06 00:45:05;;;;;;;16.02;12.75;;;;;;;;;;5039813;28;20037;-81
2022/07/06 00:47:30;;;;;;;16.90;12.73;;;;;;;;;;5050466;28;20385;-80
2022/07/06 00:50:14;;;;;;;14.68;12.30;;;;;;;;;;5056910;28;20029;-80
2022/07/06 00:52:41;;;;;;;14.88;12.50;;;;;;;;;;5058434;28;20060;-80
2022/07/06 00:55:06;;;;;;;15.57;12.68;;;;;;;;;;5066126;28;20032;-80
2022/07/06 00:57:32;;;;;;;17.40;14.05;;;;;;;;;;5082654;28;20040;-80
2022/07/06 00:59:57;;;;;;;17.35;13.02;;;;;;;;;;5066721;28;20029;-79
2022/07/06 01:02:23;;;;;;;16.90;14.23;;;;;;;;;;5060438;28;20037;-81
2022/07/06 01:04:48;;;;;;;22.33;16.13;;;;;;;;;;5033455;28;20392;-80
2022/07/06 01:07:14;;;;;;;22.85;15.88;;;;;;;;;;5046996;28;20060;-80
2022/07/06 01:09:39;;;;;;;20.75;18.05;;;;;;;;;;5046155;28;20040;-80
2022/07/06 01:12:05;;;;;;;19.60;16.30;;;;;;;;;;5058766;28;20033;-80
2022/07/06 01:14:31;;;;;;;21.10;16.65;;;;;;;;;;5051624;28;20025;-80
2022/07/06 01:16:57;;;;;;;17.92;15.15;;;;;;;;;;5064451;28;20051;-80
2022/07/06 01:19:22;;;;;;;18.15;15.60;;;;;;;;;;5038009;28;20030;-80
2022/07/06 01:21:48;;;;;;;22.02;16.90;;;;;;;;;;5059413;28;20508;-80
2022/07/06 01:24:13;;;;;;;16.60;14.90;;;;;;;;;;5060684;28;20028;-80
2022/07/06 01:26:39;;;;;;;19.90;16.02;;;;;;;;;;5047397;28;20029;-80
2022/07/06 01:29:04;;;;;;;17.60;14.82;;;;;;;;;;5051508;28;20160;-79
2022/07/06 01:31:29;;;;;;;16.95;14.45;;;;;;;;;;5061308;28;20480;-80
2022/07/06 01:33:58;;;;;;;16.33;14.00;;;;;;;;;;5063558;28;20116;-80
2022/07/06 01:36:24;;;;;;;16.27;13.65;;;;;;;;;;5061434;28;20105;-80
2022/07/06 01:38:53;;;;;;;16.63;13.25;;;;;;;;;;5063235;28;20028;-80
2022/07/06 01:41:19;;;;;;;18.77;13.75;;;;;;;;;;5060620;28;20037;-80
2022/07/06 01:43:44;;;;;;;15.73;12.80;;;;;;;;;;5060182;28;20044;-79
2022/07/06 01:46:11;;;;;;;17.73;13.10;;;;;;;;;;5054551;28;20117;-80
2022/07/06 01:48:36;;;;;;;15.23;12.10;;;;;;;;;;5041749;28;20017;-79
2022/07/06 01:51:02;;;;;;;14.90;11.60;;;;;;;;;;5060014;28;20033;-79
2022/07/06 01:53:28;;;;;;;13.90;10.77;;;;;;;;;;5044631;28;20059;-80
2022/07/06 01:55:53;;;;;;;16.30;11.65;;;;;;;;;;5061135;28;20035;-80
2022/07/06 01:58:19;;;;;;;12.18;10.77;;;;;;;;;;5044724;28;20031;-80
2022/07/06 02:00:45;;;;;;;12.50;11.25;;;;;;;;;;5026221;28;20064;-80
2022/07/06 02:03:10;;;;;;;11.25;10.05;;;;;;;;;;5044007;28;20511;-80
2022/07/06 02:05:37;;;;;;;11.43;9.93;;;;;;;;;;5060656;28;20029;-80
2022/07/06 02:08:03;;;;;;;13.48;10.85;;;;;;;;;;5033949;28;20125;-80
2022/07/06 02:10:29;;;;;;;13.30;11.98;;;;;;;;;;5063640;28;20028;-81
2022/07/06 02:12:55;;;;;;;17.33;13.25;;;;;;;;;;5060228;28;20119;-80
2022/07/06 02:15:20;;;;;;;13.63;12.23;;;;;;;;;;5043875;28;20044;-80
2022/07/06 02:17:46;;;;;;;13.60;11.80;;;;;;;;;;5042434;28;20030;-80
2022/07/06 02:20:11;;;;;;;13.38;11.70;;;;;;;;;;5042247;28;20029;-79
2022/07/06 02:22:36;;;;;;;15.27;13.52;;;;;;;;;;5041971;28;20407;-80
2022/07/06 02:25:02;;;;;;;15.25;12.95;;;;;;;;;;5043896;28;20480;-80
2022/07/06 02:27:29;;;;;;;16.98;13.52;;;;;;;;;;5041456;28;20021;-80
2022/07/06 02:29:55;;;;;;;16.98;14.85;;;;;;;;;;5053249;28;20033;-79
2022/07/06 02:32:20;;;;;;;16.67;14.82;;;;;;;;;;5039119;28;20025;-79
2022/07/06 02:34:46;;;;;;;18.13;16.20;;;;;;;;;;5039927;28;20037;-79
2022/07/06 02:37:11;;;;;;;17.52;15.68;;;;;;;;;;5021514;28;20041;-80
2022/07/06 02:39:37;;;;;;;19.20;16.10;;;;;;;;;;5023032;28;20033;-80
2022/07/06 02:42:03;;;;;;;19.30;15.90;;;;;;;;;;5036843;28;20021;-80
2022/07/06 02:44:29;;;;;;;19.38;15.80;;;;;;;;;;5036841;28;20120;-80
2022/07/06 02:46:54;;;;;;;19.58;16.65;;;;;;;;;;5038220;28;20029;-80
2022/07/06 02:49:21;;;;;;;19.38;16.73;;;;;;;;;;5045986;28;20389;-80
2022/07/06 02:51:47;;;;;;;20.00;17.25;;;;;;;;;;5062570;28;20032;-80
2022/07/06 02:54:13;;;;;;;22.13;17.85;;;;;;;;;;5029265;28;20029;-79
2022/07/06 02:56:38;;;;;;;21.73;17.35;;;;;;;;;;5041579;28;20043;-80
2022/07/06 02:59:04;;;;;;;20.70;17.35;;;;;;;;;;5063603;28;20037;-79
2022/07/06 03:01:30;;;;;;;18.90;16.83;;;;;;;;;;5033900;28;20499;-80
2022/07/06 03:03:55;;;;;;;20.90;16.63;;;;;;;;;;5060806;28;20029;-79
2022/07/06 03:06:21;;;;;;;19.05;16.20;;;;;;;;;;5059597;28;20021;-79
2022/07/06 03:08:47;;;;;;;17.65;15.82;;;;;;;;;;5037240;28;20056;-80
2022/07/06 03:11:12;;;;;;;17.38;15.48;;;;;;;;;;5056260;28;20128;-79
2022/07/06 03:13:38;;;;;;;19.63;16.55;;;;;;;;;;5051390;28;20041;-80
2022/07/06 03:16:04;;;;;;;21.90;16.60;;;;;;;;;;5041316;28;20080;-80
2022/07/06 03:18:30;;;;;;;19.58;17.13;;;;;;;;;;5060154;28;20036;-80
2022/07/06 03:20:56;;;;;;;21.83;17.50;;;;;;;;;;5062965;28;20030;-79
2022/07/06 03:23:21;;;;;;;20.77;16.42;;;;;;;;;;5043738;28;20032;-79
2022/07/06 03:25:47;;;;;;;20.98;17.75;;;;;;;;;;5050413;28;20025;-80
2022/07/06 03:28:12;;;;;;;20.10;16.77;;;;;;;;;;5042392;28;20032;-80
2022/07/06 03:30:38;;;;;;;19.95;17.20;;;;;;;;;;5046807;28;20056;-80
2022/07/06 03:33:04;;;;;;;20.50;16.95;;;;;;;;;;5052067;28;20063;-80
2022/07/06 03:35:29;;;;;;;18.17;16.27;;;;;;;;;;5057195;28;20396;-81
2022/07/06 03:37:56;;;;;;;21.38;17.25;;;;;;;;;;5052981;28;20037;-80
2022/07/06 03:40:23;;;;;;;19.98;16.85;;;;;;;;;;5052056;28;20024;-81
2022/07/06 03:42:50;;;;;;;21.85;16.80;;;;;;;;;;5042392;28;20063;-81
2022/07/06 03:45:16;;;;;;;21.08;16.88;;;;;;;;;;5049459;28;20029;-81
2022/07/06 03:47:41;;;;;;;19.00;16.27;;;;;;;;;;5048118;28;20131;-81
2022/07/06 03:50:08;;;;;;;19.42;16.95;;;;;;;;;;5048054;28;20025;-80
2022/07/06 03:52:34;;;;;;;18.45;16.45;;;;;;;;;;5081940;28;20518;-80
2022/07/06 03:55:00;;;;;;;17.63;15.63;;;;;;;;;;5050501;28;20506;-80
2022/07/06 03:57:28;;;;;;;17.88;16.17;;;;;;;;;;5053353;28;20028;-80
2022/07/06 03:59:56;;;;;;;20.42;16.25;;;;;;;;;;5053807;28;20495;-80
2022/07/06 04:02:23;;;;;;;16.55;14.85;;;;;;;;;;5052881;28;20029;-79
2022/07/06 04:04:50;;;;;;;17.38;15.68;;;;;;;;;;5052502;28;20028;-79
2022/07/06 04:07:16;;;;;;;17.83;16.02;;;;;;;;;;5052344;28;20543;-80
2022/07/06 04:09:42;;;;;;;17.17;15.40;;;;;;;;;;5052918;28;20060;-80
2022/07/06 04:12:07;;;;;;;16.88;15.18;;;;;;;;;;5029646;28;20057;-80
2022/07/06 04:14:34;;;;;;;17.27;15.48;;;;;;;;;;5045602;28;20039;-80
2022/07/06 04:17:51;;;;;;;17.65;15.95;;;;;;;;;;5051058;28;20029;-80
2022/07/06 04:19:48;;;;;;;19.52;16.35;;;;;;;;;;5051089;28;20036;-80
2022/07/06 04:22:14;;;;;;;18.30;15.77;;;;;;;;;;5019538;28;20025;-79
2022/07/06 04:24:41;;;;;;;18.00;16.17;;;;;;;;;;5051395;28;20036;-80
2022/07/06 04:27:06;;;;;;;17.52;15.57;;;;;;;;;;5052394;28;20021;-80
2022/07/06 04:29:32;;;;;;;17.73;15.82;;;;;;;;;;5051170;28;20069;-79
2022/07/06 04:31:58;;;;;;;17.90;15.45;;;;;;;;;;5052299;28;20094;-79
2022/07/06 04:34:24;;;;;;;17.75;15.80;;;;;;;;;;5034054;28;20551;-80
2022/07/06 04:36:49;;;;;;;15.90;12.70;;;;;;;;;;5051994;28;20040;-79
2022/07/06 04:39:15;;;;;;;18.38;15.63;;;;;;;;;;5050902;28;20048;-81
2022/07/06 04:41:40;;;;;;;18.67;15.05;;;;;;;;;;5052143;28;20391;-83
2022/07/06 04:44:06;;;;;;;20.00;15.68;;;;;;;;;;5052668;28;20044;-81
2022/07/06 04:46:32;;;;;;;18.30;16.23;;;;;;;;;;5052646;28;20124;-80
2022/07/06 04:48:58;;;;;;;16.58;14.77;;;;;;;;;;5052116;28;20095;-81
2022/07/06 04:51:28;;;;;;;17.77;15.70;;;;;;;;;;5052712;28;20063;-80
2022/07/06 04:53:53;;;;;;;20.50;15.20;;;;;;;;;;5052048;28;20041;-81
2022/07/06 04:56:20;;;;;;;15.95;14.23;;;;;;;;;;5036084;28;20017;-80
2022/07/06 04:58:47;;;;;;;16.25;14.65;;;;;;;;;;5052323;28;20037;-80
2022/07/06 05:01:16;;;;;;;16.67;14.68;;;;;;;;;;5052520;28;20115;-80
2022/07/06 05:03:42;;;;;;;18.80;14.57;;;;;;;;;;5053439;28;20502;-80
2022/07/06 05:06:09;;;;;;;15.98;13.73;;;;;;;;;;5042283;28;20614;-81
2022/07/06 05:08:35;;;;;;;16.25;14.27;;;;;;;;;;5036492;28;20075;-83
2022/07/06 05:11:01;;;;;;;16.70;14.98;;;;;;;;;;5025962;28;20037;-80
2022/07/06 05:13:27;;;;;;;15.98;14.48;;;;;;;;;;5032476;28;20076;-83
2022/07/06 05:15:53;;;;;;;17.25;13.90;;;;;;;;;;5000398;28;20052;-83
2022/07/06 05:18:19;;;;;;;15.57;13.98;;;;;;;;;;5036065;28;20057;-80
2022/07/06 05:20:46;;;;;;;16.98;14.73;;;;;;;;;;5042185;28;20029;-80
2022/07/06 05:23:12;;;;;;;16.10;14.45;;;;;;;;;;5013372;28;20033;-80
2022/07/06 05:25:38;;;;;;;15.48;13.98;;;;;;;;;;5024117;28;20057;-80
2022/07/06 05:28:04;;;;;;;15.40;13.80;;;;;;;;;;5032771;28;20042;-82
2022/07/06 05:30:29;;;;;;;14.15;12.65;;;;;;;;;;5032997;28;20029;-80
2022/07/06 05:32:55;;;;;;;14.48;12.82;;;;;;;;;;5032350;28;20438;-82
2022/07/06 05:35:20;;;;;;;13.85;12.55;;;;;;;;;;5043870;28;20040;-82
2022/07/06 05:37:46;;;;;;;14.50;12.95;;;;;;;;;;5035208;28;20377;-82
2022/07/06 05:40:12;;;;;;;12.35;10.43;;;;;;;;;;5032377;28;20057;-81
2022/07/06 05:42:38;;;;;;;13.13;11.82;;;;;;;;;;5032467;28;20037;-81
2022/07/06 05:45:05;;;;;;;15.18;11.80;;;;;;;;;;5032139;28;20095;-82
2022/07/06 05:50:15;;;;;;;11.50;10.40;;;;;;;;;;5031143;28;20140;-81
2022/07/06 05:52:58;;;;;;;11.30;9.73;;;;;;;;;;5051321;28;20033;-81
2022/07/06 05:55:24;;;;;;;14.00;10.68;;;;;;;;;;5034698;28;20078;-80
2022/07/06 05:57:50;;;;;;;11.82;10.52;;;;;;;;;;5051581;28;20112;-80
2022/07/06 06:00:17;;;;;;;10.02;9.07;;;;;;;;;;5051220;28;20037;-80
2022/07/06 06:02:47;;;;;;;10.25;9.10;;;;;;;;;;5035649;28;20399;-81
2022/07/06 06:05:15;;;;;;;10.65;9.55;;;;;;;;;;5050434;28;20237;-80
2022/07/06 06:07:43;;;;;;;10.38;9.45;;;;;;;;;;5051173;28;20049;-80
2022/07/06 06:10:10;;;;;;;10.32;9.27;;;;;;;;;;5050619;28;20131;-80
2022/07/06 06:12:35;;;;;;;10.07;9.13;;;;;;;;;;5052786;28;20043;-81
2022/07/06 06:15:01;;;;;;;10.82;9.82;;;;;;;;;;5052286;28;20032;-81
2022/07/06 06:17:26;;;;;;;11.25;10.10;;;;;;;;;;5051286;28;20377;-81
2022/07/06 06:19:52;;;;;;;11.55;10.45;;;;;;;;;;5050403;28;20025;-81
2022/07/06 06:22:17;;;;;;;11.68;9.93;;;;;;;;;;5051123;28;20531;-81
2022/07/06 06:24:43;;;;;;;13.52;10.65;;;;;;;;;;5051254;28;20035;-81
2022/07/06 06:27:08;;;;;;;11.98;10.05;;;;;;;;;;5050841;28;20036;-80
2022/07/06 06:29:34;;;;;;;12.30;11.00;;;;;;;;;;5052685;28;20056;-81
2022/07/06 06:31:59;;;;;;;12.63;11.40;;;;;;;;;;5042954;28;20056;-80
2022/07/06 06:34:25;;;;;;;12.25;11.10;;;;;;;;;;5044628;28;20412;-81
2022/07/06 06:36:50;;;;;;;11.95;10.65;;;;;;;;;;5031799;28;20028;-81
2022/07/06 06:39:16;;;;;;;12.20;10.90;;;;;;;;;;5017939;28;20029;-80
2022/07/06 06:41:41;;;;;;;11.68;10.38;;;;;;;;;;5052602;28;20025;-80
2022/07/06 06:44:07;;;;;;;14.13;11.27;;;;;;;;;;5051629;28;20488;-81
2022/07/06 06:46:39;;;;;;;11.30;10.30;;;;;;;;;;5050966;28;20040;-80
2022/07/06 06:49:05;;;;;;;10.98;9.90;;;;;;;;;;5050129;28;20446;-81
2022/07/06 06:51:31;;;;;;;11.90;10.50;;;;;;;;;;5050705;28;20079;-81
2022/07/06 06:53:56;;;;;;;11.98;10.45;;;;;;;;;;5050058;28;20543;-80
2022/07/06 06:56:21;;;;;;;12.65;11.45;;;;;;;;;;5052431;28;20092;-81
2022/07/06 06:58:47;;;;;;;12.38;11.07;;;;;;;;;;5049256;28;20033;-81
2022/07/06 07:01:12;;;;;;;12.63;11.40;;;;;;;;;;5040791;28;20025;-81
2022/07/06 07:03:38;;;;;;;12.20;11.00;;;;;;;;;;5051354;28;20431;-81
2022/07/06 07:06:03;;;;;;;13.60;10.60;;;;;;;;;;5052090;28;20025;-81
2022/07/06 07:08:29;;;;;;;11.20;10.25;;;;;;;;;;5051787;28;20094;-81
2022/07/06 07:10:57;;;;;;;12.32;10.95;;;;;;;;;;5043035;28;20052;-82
2022/07/06 07:13:22;;;;;;;13.48;11.15;;;;;;;;;;5033741;28;20037;-80
2022/07/06 07:15:48;;;;;;;13.35;12.05;;;;;;;;;;5052095;28;20029;-82
2022/07/06 07:18:13;;;;;;;12.73;11.52;;;;;;;;;;5033510;28;20492;-81
2022/07/06 07:20:39;;;;;;;12.82;11.00;;;;;;;;;;5052339;28;20151;-81
2022/07/06 07:23:04;;;;;;;12.45;10.88;;;;;;;;;;5050706;28;20481;-81
2022/07/06 07:25:30;;;;;;;12.02;10.90;;;;;;;;;;5051152;28;20025;-81
2022/07/06 07:27:55;;;;;;;11.20;10.02;;;;;;;;;;5048896;28;20035;-82
2022/07/06 07:30:21;;;;;;;11.98;10.80;;;;;;;;;;5050048;28;20479;-81
2022/07/06 07:32:46;;;;;;;12.25;11.10;;;;;;;;;;5049972;28;20035;-82
2022/07/06 07:35:12;;;;;;;12.70;10.13;;;;;;;;;;5051195;28;20102;-81
2022/07/06 07:37:37;;;;;;;10.45;9.50;;;;;;;;;;5037183;28;20025;-81
2022/07/06 07:40:04;;;;;;;12.05;10.02;;;;;;;;;;5053069;28;20025;-82
2022/07/06 07:42:30;;;;;;;10.10;9.07;;;;;;;;;;5051883;28;20053;-82
2022/07/06 07:44:55;;;;;;;10.77;9.73;;;;;;;;;;5054237;28;20060;-82
2022/07/06 07:47:20;;;;;;;10.38;9.38;;;;;;;;;;5051644;28;20030;-81
2022/07/06 07:49:46;;;;;;;10.05;9.05;;;;;;;;;;5053384;28;20028;-81
2022/07/06 07:52:11;;;;;;;10.45;9.25;;;;;;;;;;5053694;28;20025;-80
2022/07/06 07:54:37;;;;;;;11.93;9.93;;;;;;;;;;5054955;28;20033;-81
2022/07/06 07:57:03;;;;;;;12.75;9.98;;;;;;;;;;5041742;28;20076;-81
2022/07/06 07:59:28;;;;;;;11.05;10.05;;;;;;;;;;5053854;28;20027;-82
2022/07/06 08:01:54;;;;;;;8.85;8.00;;;;;;;;;;5040127;28;20041;-82
2022/07/06 08:04:20;;;;;;;10.35;8.63;;;;;;;;;;5053956;28;20077;-82
2022/07/06 08:06:45;;;;;;;12.70;8.50;;;;;;;;;;5040355;28;20552;-81
2022/07/06 08:09:11;;;;;;;10.07;8.60;;;;;;;;;;5053851;28;20499;-81
2022/07/06 08:11:36;;;;;;;10.75;8.68;;;;;;;;;;5053130;28;20044;-84
2022/07/06 08:14:02;;;;;;;8.93;8.07;;;;;;;;;;5053827;28;20033;-83
2022/07/06 08:16:28;;;;;;;9.13;8.23;;;;;;;;;;5054165;28;20056;-83
2022/07/06 08:18:53;;;;;;;9.73;8.80;;;;;;;;;;5036685;28;20029;-82
2022/07/06 08:21:18;;;;;;;9.07;8.18;;;;;;;;;;5052262;28;20035;-82
2022/07/06 08:23:44;;;;;;;8.65;7.93;;;;;;;;;;5042679;28;20523;-81
2022/07/06 08:26:09;;;;;;;9.60;8.60;;;;;;;;;;5052818;28;20404;-82
2022/07/06 08:28:35;;;;;;;11.75;8.32;;;;;;;;;;5036598;28;20033;-84
2022/07/06 08:31:00;;;;;;;9.60;8.70;;;;;;;;;;5052526;28;20091;-82
2022/07/06 08:33:26;;;;;;;9.23;8.23;;;;;;;;;;5054000;28;20028;-81
2022/07/06 08:35:51;;;;;;;9.10;8.20;;;;;;;;;;5053173;28;20041;-81
2022/07/06 08:38:17;;;;;;;9.27;7.95;;;;;;;;;;5054103;28;20023;-83
2022/07/06 08:40:42;;;;;;;8.98;8.18;;;;;;;;;;5051621;28;20067;-82
2022/07/06 08:43:08;;;;;;;10.32;9.40;;;;;;;;;;5036015;28;20068;-81
2022/07/06 08:45:33;;;;;;;10.20;8.77;;;;;;;;;;5052437;28;20112;-81
2022/07/06 08:48:02;;;;;;;8.13;7.40;;;;;;;;;;5051971;28;20395;-83
2022/07/06 08:50:27;;;;;;;10.38;8.15;;;;;;;;;;5050588;28;20462;-81
2022/07/06 08:52:53;;;;;;;9.35;8.43;;;;;;;;;;5052475;28;20029;-81
2022/07/06 08:55:18;;;;;;;8.75;7.80;;;;;;;;;;5051368;28;20186;-80
2022/07/06 08:57:45;;;;;;;9.55;8.32;;;;;;;;;;5052931;28;20029;-82
2022/07/06 09:00:11;;;;;;;11.32;7.88;;;;;;;;;;5034751;28;20086;-82
2022/07/06 09:02:37;;;;;;;8.57;7.53;;;;;;;;;;5053688;28;20115;-82
2022/07/06 09:05:02;;;;;;;8.13;7.32;;;;;;;;;;5051536;28;20111;-83
2022/07/06 09:07:30;;;;;;;8.27;7.47;;;;;;;;;;5053405;28;20048;-82
2022/07/06 09:09:56;;;;;;;8.65;7.03;;;;;;;;;;5052233;28;20395;-82
2022/07/06 09:12:21;;;;;;;9.65;6.82;;;;;;;;;;5035140;28;20017;-82
2022/07/06 09:14:47;;;;;;;8.18;7.40;;;;;;;;;;5051408;28;20483;-81
2022/07/06 09:17:12;;;;;;;10.77;7.50;;;;;;;;;;5051945;28;20020;-83
2022/07/06 09:19:38;;;;;;;8.60;7.35;;;;;;;;;;5051872;28;20496;-81
2022/07/06 09:22:03;;;;;;;11.45;7.38;;;;;;;;;;5051362;28;20083;-82
2022/07/06 09:24:31;;;;;;;8.10;7.30;;;;;;;;;;5051603;28;20384;-81
2022/07/06 09:26:57;;;;;;;8.25;7.45;;;;;;;;;;5040881;28;20033;-82
2022/07/06 09:29:27;;;;;;;7.60;6.90;;;;;;;;;;5050171;28;20395;-81
2022/07/06 09:31:58;;;;;;;8.32;6.95;;;;;;;;;;5052964;28;20059;-82
2022/07/06 09:34:24;;;;;;;7.85;6.60;;;;;;;;;;5033599;28;20037;-82
2022/07/06 09:36:49;;;;;;;7.45;6.75;;;;;;;;;;5051810;28;20025;-82
2022/07/06 09:39:16;;;;;;;7.25;6.55;;;;;;;;;;5049675;28;20036;-82
2022/07/06 09:41:41;;;;;;;10.52;7.07;;;;;;;;;;5034303;28;20017;-82
2022/07/06 09:44:07;;;;;;;7.72;6.57;;;;;;;;;;5049763;28;20506;-82
2022/07/06 09:46:42;;;;;;;6.72;6.03;;;;;;;;;;5052501;28;20044;-81
2022/07/06 09:49:08;;;;;;;7.47;6.47;;;;;;;;;;5050579;28;20116;-81
2022/07/06 09:51:39;;;;;;;9.43;6.68;;;;;;;;;;5041728;28;20068;-83
2022/07/06 09:54:05;;;;;;;7.53;6.53;;;;;;;;;;5048884;28;20453;-82
2022/07/06 09:56:37;;;;;;;8.23;6.22;;;;;;;;;;5040859;28;20025;-81
2022/07/06 09:59:13;;;;;;;8.13;6.25;;;;;;;;;;5045343;28;20148;-82
2022/07/06 10:01:38;;;;;;;7.18;6.38;;;;;;;;;;5031519;28;20389;-82
2022/07/06 10:04:07;;;;;;;8.48;6.30;;;;;;;;;;5012892;28;20156;-83
2022/07/06 10:06:33;;;;;;;7.65;6.90;;;;;;;;;;5026030;28;20091;-87
2022/07/06 10:08:59;;;;;;;7.72;6.43;;;;;;;;;;5032619;28;20042;-82
2022/07/06 10:11:24;;;;;;;6.68;5.97;;;;;;;;;;5015511;28;20037;-83
2022/07/06 10:13:50;;;;;;;7.18;6.03;;;;;;;;;;5015272;28;20068;-81
2022/07/06 10:16:16;;;;;;;7.28;6.32;;;;;;;;;;5031682;28;20436;-82
2022/07/06 10:18:41;;;;;;;9.02;6.75;;;;;;;;;;5031666;28;20021;-81
2022/07/06 10:21:07;;;;;;;7.03;6.10;;;;;;;;;;5046155;28;20119;-81
2022/07/06 10:23:33;;;;;;;8.20;6.30;;;;;;;;;;5052526;28;20543;-84
2022/07/06 10:25:58;;;;;;;7.78;6.70;;;;;;;;;;5051612;28;20033;-82
2022/07/06 10:28:24;;;;;;;7.78;6.97;;;;;;;;;;5052459;28;20031;-82
2022/07/06 10:30:49;;;;;;;8.55;6.50;;;;;;;;;;5052235;28;20041;-81
2022/07/06 10:33:15;;;;;;;7.18;6.47;;;;;;;;;;5034362;28;20396;-82
2022/07/06 10:35:40;;;;;;;7.85;7.10;;;;;;;;;;5051090;28;20037;-81
2022/07/06 10:38:06;;;;;;;7.38;6.65;;;;;;;;;;5045027;28;20530;-84
2022/07/06 10:43:35;;;;;;;7.13;6.43;;;;;;;;;;5017560;28;20040;-87
2022/07/06 10:46:07;;;;;;;11.27;6.90;;;;;;;;;;5032859;28;20040;-82
2022/07/06 10:48:36;;;;;;;7.55;6.57;;;;;;;;;;5044472;28;20037;-82
2022/07/06 10:51:04;;;;;;;7.70;6.90;;;;;;;;;;5051797;28;20025;-82
2022/07/06 10:53:33;;;;;;;9.63;6.93;;;;;;;;;;5052292;28;20047;-81
2022/07/06 10:55:59;;;;;;;9.88;7.18;;;;;;;;;;5044692;28;20033;-81
2022/07/06 10:58:34;;;;;;;10.48;7.35;;;;;;;;;;5015126;28;20041;-83
2022/07/06 11:01:00;;;;;;;;;;;;;;;;;;5020851;28;20025;-81
2022/07/06 11:03:38;;;;;;;7.80;7.07;;;;;;;;;;5031269;28;20016;-83
2022/07/06 11:06:09;;;;;;;7.75;6.38;;;;;;;;;;5032792;28;20041;-81
2022/07/06 11:08:50;;;;;;;8.18;5.65;;;;;;;;;;5032468;28;20472;-83
2022/07/06 11:11:16;;;;;;;6.88;5.03;;;;;;;;;;5031176;28;20041;-82
2022/07/06 11:13:52;;;;;;;6.28;4.90;;;;;;;;;;5033212;28;20128;-82
2022/07/06 11:16:18;;;;;;;10.20;5.28;;;;;;;;;;5048049;28;20483;-83
2022/07/06 11:18:49;;;;;;;5.80;4.50;;;;;;;;;;5055852;28;20028;-82
2022/07/06 11:21:16;;;;;;;6.20;4.43;;;;;;;;;;5055420;28;20040;-82
2022/07/06 11:23:41;;;;;;;5.07;4.05;;;;;;;;;;5056036;28;20186;-82
2022/07/06 11:26:07;;;;;;;7.25;4.43;;;;;;;;;;5053950;28;20040;-82
2022/07/06 11:28:33;;;;;;;5.30;3.95;;;;;;;;;;5054131;28;20051;-81
2022/07/06 11:30:59;;;;;;;5.25;4.00;;;;;;;;;;5054471;28;20045;-82
2022/07/06 11:33:30;;;;;;;4.10;3.70;;;;;;;;;;5054012;28;20060;-82
2022/07/06 11:36:15;;;;;;;6.60;4.00;;;;;;;;;;5054485;28;20127;-82
2022/07/06 11:38:41;;;;;;;3.95;3.38;;;;;;;;;;5055579;28;20033;-82
2022/07/06 11:41:06;;;;;;;4.22;3.60;;;;;;;;;;5055449;28;20055;-81
2022/07/06 11:43:32;;;;;;;4.60;3.83;;;;;;;;;;5054333;28;20075;-82
2022/07/06 11:45:57;;;;;;;4.85;4.13;;;;;;;;;;5053621;28;20017;-83
2022/07/06 11:48:23;;;;;;;6.47;4.53;;;;;;;;;;5055241;28;20492;-82
2022/07/06 11:50:58;;;;;;;6.85;4.43;;;;;;;;;;5055225;28;20029;-84
2022/07/06 11:53:24;;;;;;;6.15;4.13;;;;;;;;;;5022350;28;20400;-81
2022/07/06 11:55:49;;;;;;;6.38;4.47;;;;;;;;;;5052227;28;20029;-82
2022/07/06 11:58:15;;;;;;;6.88;4.50;;;;;;;;;;5054416;28;20025;-83
2022/07/06 12:00:40;;;;;;;5.22;4.72;;;;;;;;;;5037202;28;20146;-81
2022/07/06 12:03:05;;;;;;;5.13;4.50;;;;;;;;;;5042588;28;20038;-82
2022/07/06 12:05:31;;;;;;;7.30;4.70;;;;;;;;;;5018234;28;20057;-82
2022/07/06 12:08:06;;;;;;;7.32;4.72;;;;;;;;;;5012793;28;20183;-83
2022/07/06 12:10:34;;;;;;;5.93;5.32;;;;;;;;;;5054189;28;20033;-82
2022/07/06 12:13:03;;;;;;;7.32;4.97;;;;;;;;;;5003463;28;20033;-82
2022/07/06 12:15:29;;;;;;;5.93;5.13;;;;;;;;;;5034019;28;20044;-83
2022/07/06 12:17:54;;;;;;;5.47;4.90;;;;;;;;;;5048299;28;20025;-81
2022/07/06 12:20:20;;;;;;;6.65;5.53;;;;;;;;;;5047027;28;20534;-82
2022/07/06 12:22:45;;;;;;;8.50;5.35;;;;;;;;;;5053549;28;20053;-83
2022/07/06 12:25:10;;;;;;;5.55;5.05;;;;;;;;;;5052642;28;20033;-82
2022/07/06 12:27:36;;;;;;;5.57;4.97;;;;;;;;;;5054282;28;20035;-82
2022/07/06 12:30:11;;;;;;;5.78;5.20;;;;;;;;;;5054548;28;20120;-83
2022/07/06 12:32:37;;;;;;;7.38;5.20;;;;;;;;;;5028297;28;20071;-81
2022/07/06 12:35:03;;;;;;;6.43;5.53;;;;;;;;;;5053053;28;20021;-82
2022/07/06 12:37:28;;;;;;;8.13;5.50;;;;;;;;;;5053731;28;20094;-80
2022/07/06 12:39:54;;;;;;;7.18;5.60;;;;;;;;;;5052748;28;20052;-81
2022/07/06 12:42:20;;;;;;;8.32;5.63;;;;;;;;;;5053065;28;20037;-82
2022/07/06 12:44:49;;;;;;;8.20;6.03;;;;;;;;;;5035875;28;20028;-82
2022/07/06 12:47:18;;;;;;;7.90;5.93;;;;;;;;;;5027331;28;20043;-81
2022/07/06 12:49:44;;;;;;;7.35;6.07;;;;;;;;;;5053540;28;20028;-82
2022/07/06 12:52:10;;;;;;;6.80;5.70;;;;;;;;;;5046643;28;20602;-82
2022/07/06 12:54:36;;;;;;;6.30;5.70;;;;;;;;;;5046901;28;20044;-82
2022/07/06 12:57:08;;;;;;;6.50;5.72;;;;;;;;;;5053666;28;20063;-82
2022/07/06 12:59:37;;;;;;;8.38;5.05;;;;;;;;;;5053976;28;20395;-83
2022/07/06 13:02:03;;;;;;;6.68;5.72;;;;;;;;;;5036343;28;20029;-82
2022/07/06 13:04:29;;;;;;;6.65;6.00;;;;;;;;;;5032731;28;20060;-82
2022/07/06 13:06:55;;;;;;;6.85;5.63;;;;;;;;;;5032902;28;20455;-81
2022/07/06 13:10:04;;;;;;;8.18;6.20;;;;;;;;;;5057944;27;20493;-84
2022/07/06 13:12:29;;;;;;;8.90;6.20;;;;;;;;;;5069715;28;20120;-83
2022/07/06 13:14:55;;;;;;;6.28;5.65;;;;;;;;;;5051320;28;20039;-82
2022/07/06 13:17:20;;;;;;;8.10;6.22;;;;;;;;;;5069282;28;20020;-83
2022/07/06 13:19:46;;;;;;;7.97;5.78;;;;;;;;;;5067601;28;20059;-82
2022/07/06 13:22:11;;;;;;;8.38;5.90;;;;;;;;;;5051547;28;20037;-82
2022/07/06 13:24:37;;;;;;;8.82;6.28;;;;;;;;;;5056077;28;20033;-82
2022/07/06 13:27:03;;;;;;;6.72;6.03;;;;;;;;;;5068864;28;20036;-82
2022/07/06 13:29:28;;;;;;;6.82;5.68;;;;;;;;;;5053253;28;20033;-81
2022/07/06 13:31:53;;;;;;;7.35;5.65;;;;;;;;;;5048822;28;20024;-81
2022/07/06 13:34:19;;;;;;;7.90;6.03;;;;;;;;;;5050314;28;20078;-82
2022/07/06 13:36:44;;;;;;;8.65;6.15;;;;;;;;;;5049847;28;20037;-82
2022/07/06 13:39:10;;;;;;;8.05;6.07;;;;;;;;;;5049657;28;20037;-81
2022/07/06 13:41:35;;;;;;;6.78;5.70;;;;;;;;;;5016258;28;20033;-83
2022/07/06 13:44:01;;;;;;;7.53;5.78;;;;;;;;;;5048624;28;20031;-80
2022/07/06 13:46:27;;;;;;;7.50;6.03;;;;;;;;;;5048360;28;20037;-81
2022/07/06 13:48:53;;;;;;;6.38;5.60;;;;;;;;;;5049835;28;20033;-82
2022/07/06 13:51:18;;;;;;;8.98;6.20;;;;;;;;;;5048796;28;20037;-84
2022/07/06 13:53:43;;;;;;;7.57;5.78;;;;;;;;;;5030065;28;20118;-81
2022/07/06 13:56:09;;;;;;;8.30;5.60;;;;;;;;;;5057235;28;20033;-83
2022/07/06 13:58:35;;;;;;;10.45;6.05;;;;;;;;;;5050986;28;20033;-82
2022/07/06 14:01:00;;;;;;;8.00;5.80;;;;;;;;;;5067845;28;20060;-81
2022/07/06 14:03:29;;;;;;;6.18;4.75;;;;;;;;;;5050970;28;20051;-84
2022/07/06 14:05:58;;;;;;;6.00;5.07;;;;;;;;;;5068122;28;20032;-84
2022/07/06 14:08:24;;;;;;;8.85;5.60;;;;;;;;;;5067257;28;20056;-83
2022/07/06 14:10:49;;;;;;;6.10;4.85;;;;;;;;;;5058978;28;20037;-84
2022/07/06 14:13:14;;;;;;;7.63;4.75;;;;;;;;;;5048101;28;20269;-83
2022/07/06 14:15:40;;;;;;;8.05;5.10;;;;;;;;;;5048226;28;20108;-82
2022/07/06 14:18:05;;;;;;;6.65;5.30;;;;;;;;;;5048612;28;20132;-81
2022/07/06 14:20:31;;;;;;;6.13;5.20;;;;;;;;;;5041105;28;20088;-81
2022/07/06 14:22:56;;;;;;;7.40;5.25;;;;;;;;;;5018044;28;20491;-82
2022/07/06 14:25:22;;;;;;;7.45;5.30;;;;;;;;;;5034310;28;20041;-81
2022/07/06 14:27:47;;;;;;;10.55;5.93;;;;;;;;;;5035769;28;20033;-83
2022/07/06 14:30:13;;;;;;;6.90;5.50;;;;;;;;;;5026086;28;20029;-82